createdAt,value
2022-10-20T00:00:33.190Z,100.00
2022-10-20T00:02:59.849Z,100.00
2022-10-20T00:05:27.716Z,100.00
2022-10-20T00:07:54.259Z,100.00
2022-10-20T00:10:20.952Z,100.00
2022-10-20T00:12:47.463Z,100.00
2022-10-20T00:15:14.015Z,100.00
2022-10-20T00:17:40.566Z,100.00
2022-10-20T00:20:08.099Z,100.00
2022-10-20T00:22:36.269Z,100.00
2022-10-20T00:25:03.410Z,100.00
2022-10-20T00:27:29.981Z,100.00
2022-10-20T00:29:56.611Z,100.00
2022-10-20T00:32:23.132Z,100.00
2022-10-20T00:34:49.694Z,100.00
2022-10-20T00:37:16.196Z,100.00
2022-10-20T00:39:44.159Z,100.00
2022-10-20T00:42:14.633Z,100.00
2022-10-20T00:44:53.758Z,100.00
2022-10-20T00:47:28.955Z,100.00
2022-10-20T00:49:57.628Z,100.00
2022-10-20T00:52:25.369Z,100.00
2022-10-20T00:54:53.307Z,100.00
2022-10-20T00:57:20.652Z,100.00
2022-10-20T00:59:47.574Z,100.00
2022-10-20T01:02:14.461Z,100.00
2022-10-20T01:04:42.103Z,100.00
2022-10-20T01:07:08.649Z,100.00
2022-10-20T01:09:35.645Z,100.00
2022-10-20T01:12:14.215Z,100.00
2022-10-20T01:14:47.203Z,100.00
2022-10-20T01:17:24.022Z,100.00
2022-10-20T01:20:20.668Z,100.00
2022-10-20T01:23:10.910Z,100.00
2022-10-20T01:25:52.903Z,100.00
2022-10-20T01:28:26.703Z,100.00
2022-10-20T01:30:59.001Z,100.00
2022-10-20T01:33:35.561Z,100.00
2022-10-20T01:36:07.434Z,100.00
2022-10-20T01:38:39.174Z,100.00
2022-10-20T01:41:12.338Z,100.00
2022-10-20T01:43:43.204Z,100.00
2022-10-20T01:46:12.356Z,100.00
2022-10-20T01:48:40.204Z,100.00
2022-10-20T01:51:08.782Z,100.00
2022-10-20T01:53:35.730Z,100.00
2022-10-20T01:56:03.997Z,100.00
2022-10-20T01:59:11.411Z,100.00
2022-10-20T02:01:56.307Z,100.00
2022-10-20T02:04:33.651Z,100.00
2022-10-20T02:07:09.040Z,100.00
2022-10-20T02:09:41.880Z,100.00
2022-10-20T02:12:13.328Z,100.00
2022-10-20T02:14:42.703Z,100.00
2022-10-20T02:17:13.801Z,100.00
2022-10-20T02:19:42.655Z,100.00
2022-10-20T02:22:11.955Z,100.00
2022-10-20T02:24:40.841Z,100.00
2022-10-20T02:27:13.892Z,100.00
2022-10-20T02:29:46.097Z,100.00
2022-10-20T02:32:15.023Z,100.00
2022-10-20T02:34:42.625Z,100.00
2022-10-20T02:37:09.424Z,100.00
2022-10-20T02:39:36.129Z,100.00
2022-10-20T02:42:02.837Z,100.00
2022-10-20T02:44:29.372Z,100.00
2022-10-20T02:46:57.249Z,100.00
2022-10-20T02:49:23.972Z,100.00
2022-10-20T02:51:50.523Z,100.00
2022-10-20T02:54:17.336Z,100.00
2022-10-20T02:56:43.875Z,100.00
2022-10-20T02:59:13.047Z,100.00
2022-10-20T03:01:40.067Z,100.00
2022-10-20T03:04:07.994Z,100.00
2022-10-20T03:06:34.564Z,100.00
2022-10-20T03:09:01.152Z,100.00
2022-10-20T03:11:27.700Z,100.00
2022-10-20T03:13:54.247Z,100.00
2022-10-20T03:16:21.107Z,100.00
2022-10-20T03:18:47.780Z,100.00
2022-10-20T03:21:15.705Z,100.00
2022-10-20T03:23:42.264Z,100.00
2022-10-20T03:26:11.408Z,100.00
2022-10-20T03:28:39.629Z,100.00
2022-10-20T03:31:06.914Z,100.00
2022-10-20T03:33:33.437Z,100.00
2022-10-20T03:35:59.943Z,100.00
2022-10-20T03:38:28.109Z,100.00
2022-10-20T03:40:54.685Z,100.00
2022-10-20T03:43:21.333Z,100.00
2022-10-20T03:45:47.976Z,100.00
2022-10-20T03:48:14.706Z,100.00
2022-10-20T03:50:41.971Z,100.00
2022-10-20T03:53:12.153Z,100.00
2022-10-20T03:55:40.210Z,100.00
2022-10-20T03:58:06.746Z,100.00
2022-10-20T04:00:33.288Z,100.00
2022-10-20T04:02:59.815Z,100.00
2022-10-20T04:05:26.505Z,100.00
2022-10-20T04:07:53.062Z,100.00
2022-10-20T04:10:19.713Z,100.00
2022-10-20T04:12:47.590Z,100.00
2022-10-20T04:15:14.321Z,100.00
2022-10-20T04:17:40.857Z,100.00
2022-10-20T04:20:07.965Z,100.00
2022-10-20T04:22:34.821Z,100.00
2022-10-20T04:25:02.023Z,100.00
2022-10-20T04:27:28.761Z,100.00
2022-10-20T04:29:56.643Z,100.00
2022-10-20T04:32:23.185Z,100.00
2022-10-20T04:34:49.783Z,100.00
2022-10-20T04:37:16.291Z,100.00
2022-10-20T04:39:42.973Z,100.00
2022-10-20T04:42:09.462Z,100.00
2022-10-20T04:44:36.085Z,100.00
2022-10-20T04:47:03.941Z,100.00
2022-10-20T04:49:30.568Z,100.00
2022-10-20T04:52:00.838Z,100.00
2022-10-20T04:54:28.143Z,100.00
2022-10-20T04:56:54.650Z,100.00
2022-10-20T04:59:21.469Z,100.00
2022-10-20T05:01:48.184Z,100.00
2022-10-20T05:04:16.424Z,100.00
2022-10-20T05:06:43.055Z,100.00
2022-10-20T05:09:09.830Z,100.00
2022-10-20T05:11:37.261Z,100.00
2022-10-20T05:14:04.396Z,100.00
2022-10-20T05:16:31.302Z,100.00
2022-10-20T05:18:58.030Z,100.00
2022-10-20T05:21:28.200Z,100.00
2022-10-20T05:23:55.908Z,100.00
2022-10-20T05:26:22.520Z,100.00
2022-10-20T05:28:50.573Z,100.00
2022-10-20T05:31:19.405Z,100.00
2022-10-20T05:33:47.349Z,100.00
2022-10-20T05:36:19.382Z,100.00
2022-10-20T05:38:51.263Z,100.00
2022-10-20T05:41:19.932Z,100.00
2022-10-20T05:43:48.088Z,100.00
2022-10-20T05:46:14.749Z,100.00
2022-10-20T05:48:43.221Z,100.00
2022-10-20T05:51:13.937Z,100.00
2022-10-20T05:53:42.215Z,100.00
2022-10-20T05:56:12.020Z,100.00
2022-10-20T05:58:39.600Z,100.00
2022-10-20T06:01:09.550Z,100.00
2022-10-20T06:03:36.706Z,100.00
2022-10-20T06:06:04.302Z,100.00
2022-10-20T06:08:31.228Z,100.00
2022-10-20T06:11:01.585Z,100.00
2022-10-20T06:13:30.637Z,100.00
2022-10-20T06:16:01.553Z,100.00
2022-10-20T06:18:28.088Z,100.00
2022-10-20T06:21:00.368Z,100.00
2022-10-20T06:23:26.896Z,100.00
2022-10-20T06:25:53.443Z,100.00
2022-10-20T06:28:20.046Z,100.00
2022-10-20T06:30:47.923Z,100.00
2022-10-20T06:33:14.404Z,100.00
2022-10-20T06:35:41.044Z,100.00
2022-10-20T06:38:07.539Z,100.00
2022-10-20T06:40:34.209Z,100.00
2022-10-20T06:43:00.700Z,100.00
2022-10-20T06:45:27.324Z,100.00
2022-10-20T06:47:55.161Z,100.00
2022-10-20T06:50:21.764Z,100.00
2022-10-20T06:52:48.339Z,100.00
2022-10-20T06:55:14.986Z,100.00
2022-10-20T06:57:41.527Z,100.00
2022-10-20T07:00:09.250Z,100.00
2022-10-20T07:02:38.317Z,100.00
2022-10-20T07:05:07.530Z,100.00
2022-10-20T07:07:34.019Z,100.00
2022-10-20T07:10:00.535Z,100.00
2022-10-20T07:12:27.057Z,100.00
2022-10-20T07:14:53.584Z,100.00
2022-10-20T07:17:20.083Z,100.00
2022-10-20T07:19:46.601Z,100.00
2022-10-20T07:22:14.469Z,100.00
2022-10-20T07:24:41.022Z,100.00
2022-10-20T07:27:07.602Z,100.00
2022-10-20T07:32:05.629Z,100.00
2022-10-20T07:34:32.124Z,100.00
2022-10-20T07:36:58.980Z,99.50
2022-10-20T07:39:27.201Z,100.00
2022-10-20T07:41:53.861Z,99.86
2022-10-20T07:44:20.456Z,100.00
2022-10-20T07:46:47.002Z,100.00
2022-10-20T07:52:00.100Z,100.00
2022-10-20T07:54:27.970Z,99.89
2022-10-20T07:56:54.519Z,99.97
2022-10-20T07:59:21.192Z,100.00
2022-10-20T08:01:48.058Z,99.64
2022-10-20T08:04:14.625Z,98.66
2022-10-20T08:06:41.514Z,98.52
2022-10-20T08:09:08.252Z,99.03
2022-10-20T08:11:36.161Z,98.36
2022-10-20T08:14:02.799Z,96.84
2022-10-20T08:16:31.406Z,96.75
2022-10-20T08:18:58.231Z,97.06
2022-10-20T08:21:24.872Z,96.53
2022-10-20T08:23:51.720Z,95.32
2022-10-20T08:26:19.620Z,94.96
2022-10-20T08:28:51.170Z,95.86
2022-10-20T08:31:17.853Z,92.98
2022-10-20T08:33:46.815Z,93.56
2022-10-20T08:36:16.636Z,93.57
2022-10-20T08:38:43.516Z,93.45
2022-10-20T08:41:16.597Z,93.55
2022-10-20T08:43:44.900Z,93.05
2022-10-20T08:46:15.417Z,92.69
2022-10-20T08:48:43.344Z,91.83
2022-10-20T08:51:17.463Z,92.01
2022-10-20T08:53:44.056Z,91.89
2022-10-20T08:56:12.669Z,91.42
2022-10-20T08:58:42.610Z,91.05
2022-10-20T09:01:20.077Z,90.29
2022-10-20T09:03:51.513Z,89.93
2022-10-20T09:06:18.439Z,90.18
2022-10-20T09:08:45.969Z,89.84
2022-10-20T09:11:17.194Z,89.81
2022-10-20T09:13:44.310Z,89.96
2022-10-20T09:16:27.310Z,90.93
2022-10-20T09:19:13.741Z,90.06
2022-10-20T09:21:41.344Z,89.83
2022-10-20T09:24:08.229Z,89.50
2022-10-20T09:26:54.606Z,88.98
2022-10-20T09:29:35.128Z,88.72
2022-10-20T09:32:15.350Z,88.31
2022-10-20T09:34:49.528Z,87.31
2022-10-20T09:37:18.429Z,87.64
2022-10-20T09:39:55.378Z,87.14
2022-10-20T09:42:28.483Z,86.98
2022-10-20T09:44:58.455Z,87.43
2022-10-20T09:47:27.750Z,86.54
2022-10-20T09:50:01.203Z,86.64
2022-10-20T09:52:31.814Z,86.26
2022-10-20T09:55:02.550Z,86.61
2022-10-20T09:57:31.104Z,88.38
2022-10-20T10:00:04.687Z,86.19
2022-10-20T10:02:39.898Z,84.98
2022-10-20T10:05:17.971Z,83.89
2022-10-20T10:07:44.896Z,84.67
2022-10-20T10:10:25.181Z,82.91
2022-10-20T10:12:52.403Z,84.47
2022-10-20T10:15:26.853Z,83.68
2022-10-20T10:17:54.996Z,84.28
2022-10-20T10:20:33.008Z,84.12
2022-10-20T10:23:20.186Z,82.92
2022-10-20T10:25:46.960Z,83.81
2022-10-20T10:31:19.117Z,82.06
2022-10-20T10:33:46.025Z,81.88
2022-10-20T10:36:21.731Z,80.98
2022-10-20T10:38:48.454Z,80.47
2022-10-20T10:41:24.208Z,79.86
2022-10-20T10:44:00.175Z,80.55
2022-10-20T10:46:28.334Z,81.62
2022-10-20T10:49:07.019Z,79.64
2022-10-20T10:51:47.902Z,81.11
2022-10-20T10:54:31.948Z,80.95
2022-10-20T10:57:03.166Z,81.38
2022-10-20T10:59:34.979Z,79.86
2022-10-20T11:02:35.110Z,79.55
2022-10-20T11:05:21.008Z,79.29
2022-10-20T11:07:59.456Z,77.92
2022-10-20T11:10:33.240Z,77.82
2022-10-20T11:13:16.120Z,77.11
2022-10-20T11:15:54.604Z,76.38
2022-10-20T11:18:41.508Z,76.59
2022-10-20T11:21:19.511Z,77.25
2022-10-20T11:24:11.551Z,78.28
2022-10-20T11:26:40.646Z,77.25
2022-10-20T11:29:16.226Z,77.06
2022-10-20T11:31:48.265Z,78.30
2022-10-20T11:34:20.475Z,77.56
2022-10-20T11:36:54.862Z,77.20
2022-10-20T11:39:28.379Z,77.23
2022-10-20T11:42:01.217Z,77.14
2022-10-20T11:44:34.967Z,78.31
2022-10-20T11:47:05.920Z,78.83
2022-10-20T11:49:33.761Z,78.87
2022-10-20T11:52:33.120Z,78.87
2022-10-20T11:55:19.168Z,79.35
2022-10-20T11:58:01.636Z,79.68
2022-10-20T12:00:44.052Z,79.14
2022-10-20T12:03:38.178Z,78.92
2022-10-20T12:06:52.432Z,81.67
2022-10-20T12:09:40.216Z,79.77
2022-10-20T12:12:14.524Z,81.42
2022-10-20T12:14:43.400Z,82.72
2022-10-20T12:17:33.375Z,82.50
2022-10-20T12:20:37.065Z,82.05
2022-10-20T12:23:04.175Z,85.64
2022-10-20T12:25:41.330Z,85.25
2022-10-20T12:28:39.755Z,84.67
2022-10-20T12:31:06.372Z,85.73
2022-10-20T12:33:41.992Z,85.17
2022-10-20T12:36:32.116Z,85.85
2022-10-20T12:39:22.632Z,85.88
2022-10-20T12:41:58.916Z,86.04
2022-10-20T12:44:29.173Z,85.44
2022-10-20T12:46:58.692Z,86.48
2022-10-20T12:49:30.419Z,87.76
2022-10-20T12:51:58.538Z,87.83
2022-10-20T12:54:31.576Z,87.92
2022-10-20T12:57:01.386Z,88.25
2022-10-20T12:59:47.038Z,88.13
2022-10-20T13:02:32.945Z,86.72
2022-10-20T13:05:02.089Z,86.41
2022-10-20T13:08:00.999Z,86.28
2022-10-20T13:10:33.110Z,85.59
2022-10-20T13:13:41.110Z,85.09
2022-10-20T13:16:18.730Z,85.22
2022-10-20T13:18:48.140Z,83.77
2022-10-20T13:21:26.752Z,83.74
2022-10-20T13:24:01.583Z,84.33
2022-10-20T13:26:31.020Z,84.40
2022-10-20T13:29:00.347Z,83.25
2022-10-20T13:31:33.190Z,83.64
2022-10-20T13:34:07.160Z,85.62
2022-10-20T13:36:53.176Z,84.70
2022-10-20T13:39:25.563Z,84.46
2022-10-20T13:42:02.662Z,84.63
2022-10-20T13:44:36.547Z,84.51
2022-10-20T13:47:22.419Z,86.00
2022-10-20T13:49:59.408Z,84.28
2022-10-20T13:52:28.135Z,86.08
2022-10-20T13:54:56.149Z,84.90
2022-10-20T13:57:27.726Z,84.73
2022-10-20T13:59:59.215Z,85.02
2022-10-20T14:02:29.680Z,85.54
2022-10-20T14:05:05.056Z,83.33
2022-10-20T14:07:39.765Z,84.78
2022-10-20T14:10:07.620Z,85.78
2022-10-20T14:12:34.424Z,83.67
2022-10-20T14:15:03.910Z,83.95
2022-10-20T14:17:31.862Z,85.32
2022-10-20T14:20:09.433Z,84.70
2022-10-20T14:22:42.943Z,85.59
2022-10-20T14:25:11.471Z,85.42
2022-10-20T14:27:38.742Z,86.54
2022-10-20T14:30:07.664Z,87.47
2022-10-20T14:32:39.253Z,87.00
2022-10-20T14:35:17.865Z,88.70
2022-10-20T14:37:50.768Z,87.52
2022-10-20T14:40:21.454Z,89.19
2022-10-20T14:42:48.800Z,88.65
2022-10-20T14:45:20.719Z,88.32
2022-10-20T14:47:49.934Z,89.55
2022-10-20T14:50:22.489Z,91.05
2022-10-20T14:52:53.677Z,89.51
2022-10-20T14:55:30.850Z,88.98
2022-10-20T14:57:57.461Z,88.91
2022-10-20T15:00:27.499Z,89.51
2022-10-20T15:02:56.357Z,89.61
2022-10-20T15:05:31.479Z,89.55
2022-10-20T15:08:01.453Z,89.61
2022-10-20T15:10:31.292Z,90.05
2022-10-20T15:12:58.089Z,91.17
2022-10-20T15:15:27.271Z,91.43
2022-10-20T15:18:10.007Z,90.43
2022-10-20T15:20:38.092Z,91.14
2022-10-20T15:23:08.141Z,90.07
2022-10-20T15:25:43.226Z,90.83
2022-10-20T15:28:32.038Z,91.41
2022-10-20T15:30:59.939Z,92.23
2022-10-20T15:33:28.137Z,92.94
2022-10-20T15:35:54.712Z,91.64
2022-10-20T15:38:21.656Z,91.72
2022-10-20T15:40:48.523Z,91.53
2022-10-20T15:43:16.653Z,92.95
2022-10-20T15:45:47.435Z,93.51
2022-10-20T15:48:13.998Z,93.96
2022-10-20T15:50:41.983Z,94.65
2022-10-20T15:53:11.925Z,94.78
2022-10-20T15:55:42.177Z,95.53
2022-10-20T15:58:10.093Z,96.94
2022-10-20T16:00:37.567Z,97.94
2022-10-20T16:03:04.851Z,99.87
2022-10-20T16:05:31.610Z,100.00
2022-10-20T16:07:59.491Z,100.00
2022-10-20T16:10:27.078Z,100.00
2022-10-20T16:12:53.600Z,100.00
2022-10-20T16:15:20.134Z,100.00
2022-10-20T16:17:46.793Z,100.00
2022-10-20T16:20:14.267Z,100.00
2022-10-20T16:22:41.178Z,100.00
2022-10-20T16:25:10.431Z,100.00
2022-10-20T16:27:37.675Z,100.00
2022-10-20T16:30:06.605Z,100.00
2022-10-20T16:32:35.317Z,100.00
2022-10-20T16:35:02.518Z,100.00
2022-10-20T16:37:30.699Z,100.00
2022-10-20T16:39:57.222Z,100.00
2022-10-20T16:42:25.309Z,100.00
2022-10-20T16:44:51.829Z,100.00
2022-10-20T16:47:18.489Z,100.00
2022-10-20T16:49:44.997Z,100.00
2022-10-20T16:52:11.640Z,100.00
2022-10-20T16:54:38.172Z,100.00
2022-10-20T16:57:04.863Z,100.00
2022-10-20T16:59:32.709Z,100.00
2022-10-20T17:01:59.289Z,100.00
2022-10-20T17:04:25.857Z,100.00
2022-10-20T17:06:52.416Z,100.00
2022-10-20T17:09:19.277Z,100.00
2022-10-20T17:11:45.847Z,100.00
2022-10-20T17:14:12.477Z,100.00
2022-10-20T17:16:40.525Z,100.00
2022-10-20T17:19:07.036Z,100.00
2022-10-20T17:21:34.428Z,100.00
2022-10-20T17:24:01.712Z,100.00
2022-10-20T17:26:30.034Z,100.00
2022-10-20T17:28:58.194Z,100.00
2022-10-20T17:31:24.830Z,100.00
2022-10-20T17:33:53.152Z,100.00
2022-10-20T17:36:19.730Z,100.00
2022-10-20T17:38:46.330Z,100.00
2022-10-20T17:41:14.838Z,100.00
2022-10-20T17:43:41.937Z,100.00
2022-10-20T17:46:10.904Z,100.00
2022-10-20T17:48:38.168Z,100.00
2022-10-20T17:51:08.064Z,100.00
2022-10-20T17:53:36.156Z,100.00
2022-10-20T17:56:05.871Z,100.00
2022-10-20T17:58:32.921Z,100.00
2022-10-20T18:01:07.526Z,100.00
2022-10-20T18:03:34.040Z,100.00
2022-10-20T18:06:10.970Z,100.00
2022-10-20T18:08:38.061Z,100.00
2022-10-20T18:11:08.558Z,100.00
2022-10-20T18:13:35.141Z,100.00
2022-10-20T18:16:04.533Z,100.00
2022-10-20T18:18:31.106Z,100.00
2022-10-20T18:20:57.663Z,100.00
2022-10-20T18:23:25.897Z,100.00
2022-10-20T18:25:52.425Z,100.00
2022-10-20T18:28:19.057Z,100.00
2022-10-20T18:30:45.786Z,100.00
2022-10-20T18:33:12.297Z,100.00
2022-10-20T18:35:39.306Z,100.00
2022-10-20T18:38:06.122Z,100.00
2022-10-20T18:40:34.036Z,100.00
2022-10-20T18:43:00.536Z,100.00
2022-10-20T18:45:27.230Z,100.00
2022-10-20T18:47:53.771Z,100.00
2022-10-20T18:50:20.517Z,100.00
2022-10-20T18:52:47.061Z,100.00
2022-10-20T18:55:13.564Z,100.00
2022-10-20T18:57:41.468Z,100.00
2022-10-20T19:00:09.388Z,100.00
2022-10-20T19:02:36.058Z,100.00
2022-10-20T19:05:02.676Z,100.00
2022-10-20T19:07:32.356Z,100.00
2022-10-20T19:09:58.935Z,100.00
2022-10-20T19:12:25.431Z,100.00
2022-10-20T19:14:53.343Z,100.00
2022-10-20T19:17:19.835Z,100.00
2022-10-20T19:19:46.339Z,100.00
2022-10-20T19:22:12.860Z,100.00
2022-10-20T19:24:39.383Z,100.00
2022-10-20T19:27:26.596Z,100.00
2022-10-20T19:29:54.232Z,100.00
2022-10-20T19:32:20.774Z,100.00
2022-10-20T19:34:47.304Z,100.00
2022-10-20T19:37:13.852Z,100.00
2022-10-20T19:39:41.902Z,100.00
2022-10-20T19:42:09.128Z,100.00
2022-10-20T19:44:36.705Z,100.00
2022-10-20T19:47:05.979Z,100.00
2022-10-20T19:49:32.644Z,100.00
2022-10-20T19:51:59.211Z,100.00
2022-10-20T19:54:26.070Z,100.00
2022-10-20T19:56:52.620Z,100.00
2022-10-20T19:59:19.306Z,100.00
2022-10-20T20:01:45.974Z,100.00
2022-10-20T20:04:13.869Z,100.00
2022-10-20T20:06:40.612Z,100.00
2022-10-20T20:09:09.027Z,100.00
2022-10-20T20:11:36.863Z,100.00
2022-10-20T20:14:06.331Z,100.00
2022-10-20T20:16:32.994Z,100.00
2022-10-20T20:18:59.564Z,100.00
2022-10-20T20:21:27.988Z,100.00
2022-10-20T20:23:59.303Z,100.00
2022-10-20T20:26:27.361Z,100.00
2022-10-20T20:28:54.498Z,100.00
2022-10-20T20:31:22.365Z,100.00
2022-10-20T20:33:49.711Z,100.00
2022-10-20T20:36:16.407Z,100.00
2022-10-20T20:38:44.463Z,100.00
2022-10-20T20:41:13.034Z,100.00
2022-10-20T20:43:39.907Z,100.00
2022-10-20T20:46:09.026Z,100.00
2022-10-20T20:48:36.418Z,100.00
2022-10-20T20:51:03.769Z,100.00
2022-10-20T20:53:30.564Z,100.00
2022-10-20T20:55:59.981Z,100.00
2022-10-20T20:58:27.728Z,100.00
2022-10-20T21:01:01.212Z,100.00
2022-10-20T21:03:27.916Z,100.00
2022-10-20T21:05:54.438Z,100.00
2022-10-20T21:08:20.958Z,100.00
2022-10-20T21:10:47.486Z,100.00
2022-10-20T21:13:15.335Z,100.00
2022-10-20T21:15:41.819Z,100.00
2022-10-20T21:18:08.357Z,100.00
2022-10-20T21:20:34.866Z,100.00
2022-10-20T21:23:01.410Z,100.00
2022-10-20T21:25:27.908Z,100.00
2022-10-20T21:27:54.428Z,100.00
2022-10-20T21:30:22.309Z,100.00
2022-10-20T21:32:48.841Z,100.00
2022-10-20T21:35:15.543Z,100.00
2022-10-20T21:37:42.043Z,100.00
2022-10-20T21:40:09.813Z,100.00
2022-10-20T21:42:39.288Z,100.00
2022-10-20T21:45:06.604Z,100.00
2022-10-20T21:47:34.490Z,100.00
2022-10-20T21:50:00.998Z,100.00
2022-10-20T21:52:27.482Z,100.00
2022-10-20T21:54:53.986Z,100.00
2022-10-20T21:57:20.623Z,100.00
2022-10-20T21:59:47.164Z,100.00
2022-10-20T22:02:13.690Z,100.00
2022-10-20T22:04:41.526Z,100.00
2022-10-20T22:07:08.011Z,100.00
2022-10-20T22:09:34.533Z,100.00
2022-10-20T22:12:01.025Z,100.00
2022-10-20T22:14:27.903Z,100.00
2022-10-20T22:16:54.407Z,100.00
2022-10-20T22:19:23.133Z,100.00
2022-10-20T22:21:52.579Z,100.00
2022-10-20T22:24:20.021Z,100.00
2022-10-20T22:26:47.963Z,100.00
2022-10-20T22:29:14.822Z,100.00
2022-10-20T22:31:41.451Z,100.00
2022-10-20T22:34:09.260Z,100.00
2022-10-20T22:36:36.285Z,100.00
2022-10-20T22:39:04.569Z,100.00
2022-10-20T22:41:31.117Z,100.00
2022-10-20T22:43:58.274Z,100.00
2022-10-20T22:46:25.267Z,100.00
2022-10-20T22:48:51.838Z,100.00
2022-10-20T22:51:18.557Z,100.00
2022-10-20T22:53:45.132Z,100.00
2022-10-20T22:56:14.840Z,100.00
2022-10-20T22:58:42.212Z,100.00
2022-10-20T23:01:11.256Z,100.00
2022-10-20T23:03:38.708Z,100.00
2022-10-20T23:06:06.645Z,100.00
2022-10-20T23:08:37.783Z,100.00
2022-10-20T23:11:05.029Z,100.00
2022-10-20T23:13:33.061Z,100.00
2022-10-20T23:15:59.812Z,100.00
2022-10-20T23:18:26.387Z,100.00
2022-10-20T23:20:54.832Z,100.00
2022-10-20T23:23:24.178Z,100.00
2022-10-20T23:25:51.010Z,100.00
2022-10-20T23:28:18.171Z,100.00
2022-10-20T23:30:46.657Z,100.00
2022-10-20T23:33:13.291Z,100.00
2022-10-20T23:35:40.079Z,100.00
2022-10-20T23:38:07.949Z,100.00
2022-10-20T23:40:34.652Z,100.00
2022-10-20T23:43:01.162Z,100.00
2022-10-20T23:45:27.758Z,100.00
2022-10-20T23:47:55.799Z,100.00
2022-10-20T23:50:22.728Z,100.00
2022-10-20T23:52:49.261Z,100.00
2022-10-20T23:55:16.100Z,100.00
2022-10-20T23:57:42.627Z,100.00
